createdAt,value
2023-04-23T00:00:13.355Z,100.00
2023-04-23T00:03:10.155Z,100.00
2023-04-23T00:05:37.960Z,100.00
2023-04-23T00:08:06.150Z,100.00
2023-04-23T00:10:33.323Z,100.00
2023-04-23T00:13:00.984Z,100.00
2023-04-23T00:15:28.436Z,100.00
2023-04-23T00:17:55.574Z,100.00
2023-04-23T00:20:23.122Z,100.00
2023-04-23T00:22:50.315Z,100.00
2023-04-23T00:25:17.347Z,100.00
2023-04-23T00:27:44.511Z,100.00
2023-04-23T00:30:11.733Z,100.00
2023-04-23T00:32:38.892Z,100.00
2023-04-23T00:35:06.418Z,100.00
2023-04-23T00:37:33.683Z,100.00
2023-04-23T00:40:00.765Z,100.00
2023-04-23T00:42:29.144Z,100.00
2023-04-23T00:44:57.152Z,100.00
2023-04-23T00:47:24.947Z,100.00
2023-04-23T00:49:55.627Z,100.00
2023-04-23T00:52:23.085Z,100.00
2023-04-23T00:54:49.944Z,100.00
2023-04-23T00:57:17.653Z,100.00
2023-04-23T00:59:45.098Z,100.00
2023-04-23T01:02:12.650Z,100.00
2023-04-23T01:04:43.544Z,100.00
2023-04-23T01:07:12.883Z,100.00
2023-04-23T01:09:40.657Z,100.00
2023-04-23T01:12:09.849Z,100.00
2023-04-23T01:14:38.451Z,100.00
2023-04-23T01:17:06.125Z,100.00
2023-04-23T01:19:33.334Z,100.00
2023-04-23T01:22:01.535Z,100.00
2023-04-23T01:24:30.168Z,100.00
2023-04-23T01:26:59.054Z,100.00
2023-04-23T01:29:26.352Z,100.00
2023-04-23T01:31:54.836Z,100.00
2023-04-23T01:34:22.552Z,100.00
2023-04-23T01:36:51.196Z,100.00
2023-04-23T01:39:18.308Z,100.00
2023-04-23T01:41:46.296Z,100.00
2023-04-23T01:44:13.165Z,100.00
2023-04-23T01:46:40.783Z,100.00
2023-04-23T01:49:08.465Z,100.00
2023-04-23T01:51:35.913Z,100.00
2023-04-23T01:54:02.826Z,100.00
2023-04-23T01:56:30.853Z,100.00
2023-04-23T01:58:57.856Z,100.00
2023-04-23T02:01:25.027Z,100.00
2023-04-23T02:03:52.116Z,100.00
2023-04-23T02:06:19.349Z,100.00
2023-04-23T02:08:46.408Z,100.00
2023-04-23T02:11:13.583Z,100.00
2023-04-23T02:13:40.880Z,100.00
2023-04-23T02:16:08.050Z,100.00
2023-04-23T02:18:35.015Z,100.00
2023-04-23T02:21:03.879Z,100.00
2023-04-23T02:23:30.722Z,100.00
2023-04-23T02:25:57.859Z,100.00
2023-04-23T02:28:24.763Z,100.00
2023-04-23T02:30:51.895Z,100.00
2023-04-23T02:33:19.917Z,100.00
2023-04-23T02:35:47.132Z,100.00
2023-04-23T02:38:14.039Z,100.00
2023-04-23T02:43:24.645Z,100.00
2023-04-23T02:45:51.890Z,100.00
2023-04-23T02:48:18.809Z,100.00
2023-04-23T02:50:46.872Z,100.00
2023-04-23T02:53:13.711Z,100.00
2023-04-23T02:55:40.939Z,100.00
2023-04-23T02:58:07.856Z,100.00
2023-04-23T03:00:35.141Z,100.00
2023-04-23T03:03:02.244Z,100.00
2023-04-23T03:05:29.793Z,100.00
2023-04-23T03:07:56.662Z,100.00
2023-04-23T03:10:23.853Z,100.00
2023-04-23T03:12:50.735Z,100.00
2023-04-23T03:15:18.172Z,100.00
2023-04-23T03:17:45.232Z,100.00
2023-04-23T03:20:12.702Z,100.00
2023-04-23T03:22:39.649Z,100.00
2023-04-23T03:25:07.018Z,100.00
2023-04-23T03:27:33.897Z,100.00
2023-04-23T03:30:01.458Z,100.00
2023-04-23T03:32:28.370Z,100.00
2023-04-23T03:34:55.600Z,100.00
2023-04-23T03:37:22.421Z,100.00
2023-04-23T03:39:49.527Z,100.00
2023-04-23T03:42:16.416Z,100.00
2023-04-23T03:44:43.668Z,100.00
2023-04-23T03:47:10.887Z,100.00
2023-04-23T03:49:38.333Z,100.00
2023-04-23T03:52:05.187Z,100.00
2023-04-23T03:54:32.343Z,100.00
2023-04-23T03:56:59.382Z,100.00
2023-04-23T03:59:26.536Z,100.00
2023-04-23T04:01:53.543Z,100.00
2023-04-23T04:04:20.795Z,100.00
2023-04-23T04:06:47.844Z,100.00
2023-04-23T04:09:14.993Z,100.00
2023-04-23T04:11:41.852Z,100.00
2023-04-23T04:14:09.013Z,100.00
2023-04-23T04:16:35.966Z,100.00
2023-04-23T04:19:03.423Z,100.00
2023-04-23T04:21:30.443Z,100.00
2023-04-23T04:23:57.676Z,100.00
2023-04-23T04:26:25.406Z,100.00
2023-04-23T04:28:53.318Z,100.00
2023-04-23T04:31:22.135Z,100.00
2023-04-23T04:33:49.854Z,100.00
2023-04-23T04:36:16.716Z,100.00
2023-04-23T04:38:43.967Z,100.00
2023-04-23T04:41:11.586Z,100.00
2023-04-23T04:43:39.490Z,100.00
2023-04-23T04:46:07.594Z,96.40
2023-04-23T04:48:35.015Z,93.01
2023-04-23T04:51:01.927Z,90.86
2023-04-23T04:53:29.094Z,87.87
2023-04-23T04:55:55.958Z,84.37
2023-04-23T04:58:23.129Z,80.16
2023-04-23T05:00:52.223Z,76.61
2023-04-23T05:03:19.876Z,72.81
2023-04-23T05:05:48.680Z,71.78
2023-04-23T05:08:17.088Z,69.80
2023-04-23T05:10:44.433Z,64.94
2023-04-23T05:13:11.604Z,59.68
2023-04-23T05:15:38.558Z,58.74
2023-04-23T05:18:06.369Z,55.60
2023-04-23T05:20:33.333Z,55.98
2023-04-23T05:23:02.360Z,55.69
2023-04-23T05:25:30.902Z,53.30
2023-04-23T05:27:58.500Z,51.23
2023-04-23T05:30:25.545Z,51.92
2023-04-23T05:32:53.268Z,50.69
2023-04-23T05:35:21.305Z,48.45
2023-04-23T05:37:48.530Z,47.62
2023-04-23T05:40:15.539Z,45.28
2023-04-23T05:42:42.702Z,43.85
2023-04-23T05:45:09.982Z,41.56
2023-04-23T05:47:37.466Z,40.93
2023-04-23T05:50:05.711Z,41.91
2023-04-23T05:52:35.760Z,42.69
2023-04-23T05:55:03.276Z,41.78
2023-04-23T05:57:30.614Z,42.08
2023-04-23T05:59:57.455Z,41.09
2023-04-23T06:02:25.439Z,40.51
2023-04-23T06:04:52.813Z,40.26
2023-04-23T06:07:20.698Z,38.66
2023-04-23T06:09:47.737Z,37.74
2023-04-23T06:12:14.928Z,37.71
2023-04-23T06:14:42.254Z,37.58
2023-04-23T06:17:09.702Z,38.57
2023-04-23T06:19:36.660Z,37.93
2023-04-23T06:22:03.910Z,38.54
2023-04-23T06:24:30.729Z,37.07
2023-04-23T06:26:57.973Z,35.70
2023-04-23T06:29:24.812Z,34.95
2023-04-23T06:31:56.472Z,35.99
2023-04-23T06:34:23.855Z,35.03
2023-04-23T06:36:52.070Z,34.75
2023-04-23T06:39:18.957Z,35.51
2023-04-23T06:41:46.128Z,32.71
2023-04-23T06:44:13.236Z,33.28
2023-04-23T06:46:40.391Z,32.90
2023-04-23T06:49:07.293Z,31.53
2023-04-23T06:51:35.043Z,31.47
2023-04-23T06:54:01.899Z,29.91
2023-04-23T06:56:29.100Z,29.12
2023-04-23T06:58:56.008Z,29.43
2023-04-23T07:01:23.433Z,28.22
2023-04-23T07:03:52.477Z,25.43
2023-04-23T07:06:19.640Z,25.79
2023-04-23T07:08:46.564Z,26.04
2023-04-23T07:11:13.723Z,25.22
2023-04-23T07:13:40.644Z,23.99
2023-04-23T07:16:07.933Z,19.62
2023-04-23T07:18:34.808Z,22.12
2023-04-23T07:21:02.389Z,21.58
2023-04-23T07:23:29.486Z,23.66
2023-04-23T07:25:56.798Z,24.35
2023-04-23T07:28:23.624Z,23.03
2023-04-23T07:30:50.822Z,23.57
2023-04-23T07:33:18.253Z,23.15
2023-04-23T07:35:45.421Z,23.39
2023-04-23T07:38:12.255Z,23.00
2023-04-23T07:40:39.437Z,23.43
2023-04-23T07:43:06.468Z,26.03
2023-04-23T07:45:33.596Z,25.79
2023-04-23T07:48:02.472Z,26.03
2023-04-23T07:50:29.794Z,25.00
2023-04-23T07:52:56.701Z,25.09
2023-04-23T07:55:23.902Z,24.04
2023-04-23T07:57:50.940Z,25.42
2023-04-23T08:00:18.452Z,25.26
2023-04-23T08:02:45.655Z,25.02
2023-04-23T08:05:12.912Z,25.58
2023-04-23T08:07:39.876Z,23.49
2023-04-23T08:10:07.690Z,22.99
2023-04-23T08:12:35.963Z,23.49
2023-04-23T08:15:03.971Z,23.24
2023-04-23T08:17:30.885Z,23.61
2023-04-23T08:19:58.200Z,22.28
2023-04-23T08:22:25.151Z,23.78
2023-04-23T08:24:52.340Z,22.02
2023-04-23T08:27:19.180Z,21.99
2023-04-23T08:29:46.621Z,22.00
2023-04-23T08:32:13.711Z,21.97
2023-04-23T08:34:40.893Z,21.82
2023-04-23T08:37:13.911Z,21.42
2023-04-23T08:39:47.104Z,21.18
2023-04-23T08:42:23.915Z,21.12
2023-04-23T08:44:53.208Z,20.14
2023-04-23T08:47:24.172Z,21.50
2023-04-23T08:49:54.626Z,20.45
2023-04-23T08:52:26.342Z,22.05
2023-04-23T08:54:55.131Z,21.07
2023-04-23T08:57:22.707Z,22.21
2023-04-23T08:59:50.484Z,23.63
2023-04-23T09:02:17.948Z,21.82
2023-04-23T09:04:45.644Z,22.17
2023-04-23T09:07:12.975Z,22.07
2023-04-23T09:09:41.479Z,22.38
2023-04-23T09:12:09.566Z,24.10
2023-04-23T09:14:36.886Z,23.07
2023-04-23T09:17:04.518Z,24.59
2023-04-23T09:19:31.824Z,22.34
2023-04-23T09:21:59.262Z,21.09
2023-04-23T09:24:26.433Z,21.61
2023-04-23T09:26:53.343Z,21.99
2023-04-23T09:29:24.412Z,21.67
2023-04-23T09:31:54.230Z,21.07
2023-04-23T09:34:24.219Z,21.53
2023-04-23T09:36:53.169Z,22.12
2023-04-23T09:39:23.181Z,19.54
2023-04-23T09:41:53.989Z,19.94
2023-04-23T09:44:22.833Z,20.40
2023-04-23T09:46:50.115Z,21.16
2023-04-23T09:49:17.376Z,20.19
2023-04-23T09:51:47.437Z,18.35
2023-04-23T09:54:21.861Z,17.57
2023-04-23T09:56:57.087Z,18.78
2023-04-23T09:59:46.127Z,19.00
2023-04-23T10:02:14.494Z,22.02
2023-04-23T10:04:42.247Z,22.09
2023-04-23T10:09:44.104Z,20.82
2023-04-23T10:12:27.898Z,21.58
2023-04-23T10:14:59.812Z,19.92
2023-04-23T10:17:27.054Z,20.97
2023-04-23T10:19:55.843Z,20.08
2023-04-23T10:22:23.243Z,20.61
2023-04-23T10:24:56.479Z,18.94
2023-04-23T10:27:36.910Z,17.51
2023-04-23T10:30:15.122Z,19.80
2023-04-23T10:32:42.418Z,18.62
2023-04-23T10:35:10.552Z,19.17
2023-04-23T10:37:38.819Z,21.03
2023-04-23T10:40:14.726Z,20.20
2023-04-23T10:42:44.449Z,19.11
2023-04-23T10:45:24.248Z,17.92
2023-04-23T10:47:55.983Z,18.17
2023-04-23T10:50:28.331Z,18.53
2023-04-23T10:52:57.666Z,17.73
2023-04-23T10:55:27.901Z,17.60
2023-04-23T10:57:55.539Z,16.17
2023-04-23T11:00:23.020Z,15.33
2023-04-23T11:02:51.145Z,14.39
2023-04-23T11:05:18.399Z,13.61
2023-04-23T11:08:18.905Z,13.66
2023-04-23T11:10:58.262Z,13.60
2023-04-23T11:13:28.568Z,14.71
2023-04-23T11:16:14.839Z,14.67
2023-04-23T11:19:17.342Z,16.22
2023-04-23T11:21:59.702Z,17.07
2023-04-23T11:24:43.397Z,17.24
2023-04-23T11:27:12.708Z,17.21
2023-04-23T11:29:41.449Z,16.52
2023-04-23T11:32:13.617Z,16.59
2023-04-23T11:34:43.271Z,16.21
2023-04-23T11:37:12.230Z,16.75
2023-04-23T11:39:41.380Z,16.13
2023-04-23T11:42:14.276Z,16.76
2023-04-23T11:44:43.241Z,18.18
2023-04-23T11:47:16.546Z,17.95
2023-04-23T11:49:45.058Z,19.72
2023-04-23T11:52:12.916Z,22.25
2023-04-23T11:54:43.177Z,20.66
2023-04-23T11:57:10.886Z,20.32
2023-04-23T11:59:38.014Z,19.32
2023-04-23T12:02:05.361Z,19.76
2023-04-23T12:04:33.603Z,20.21
2023-04-23T12:07:05.781Z,20.01
2023-04-23T12:09:38.261Z,20.59
2023-04-23T12:12:06.172Z,21.35
2023-04-23T12:14:33.750Z,21.63
2023-04-23T12:17:10.441Z,20.89
2023-04-23T12:19:37.365Z,22.08
2023-04-23T12:22:04.638Z,22.05
2023-04-23T12:24:54.902Z,22.33
2023-04-23T12:27:22.944Z,23.63
2023-04-23T12:29:59.215Z,24.05
2023-04-23T12:32:27.129Z,24.28
2023-04-23T12:34:55.445Z,24.64
2023-04-23T12:37:28.759Z,25.87
2023-04-23T12:39:56.875Z,25.20
2023-04-23T12:42:24.409Z,25.58
2023-04-23T12:44:51.787Z,24.85
2023-04-23T12:47:21.791Z,26.66
2023-04-23T12:49:53.357Z,25.65
2023-04-23T12:52:21.131Z,24.69
2023-04-23T12:54:52.278Z,25.07
2023-04-23T12:57:23.408Z,26.42
2023-04-23T12:59:50.952Z,26.29
2023-04-23T13:02:18.268Z,27.14
2023-04-23T13:04:45.144Z,26.90
2023-04-23T13:07:12.265Z,27.17
2023-04-23T13:09:39.206Z,27.33
2023-04-23T13:12:06.503Z,27.51
2023-04-23T13:14:33.337Z,27.29
2023-04-23T13:17:00.560Z,27.13
2023-04-23T13:19:27.460Z,28.24
2023-04-23T13:21:54.659Z,27.67
2023-04-23T13:24:21.460Z,27.22
2023-04-23T13:26:48.637Z,26.96
2023-04-23T13:29:16.113Z,26.23
2023-04-23T13:31:43.498Z,25.97
2023-04-23T13:34:10.409Z,25.85
2023-04-23T13:36:38.001Z,25.78
2023-04-23T13:39:04.962Z,25.83
2023-04-23T13:41:32.276Z,25.69
2023-04-23T13:44:00.036Z,25.96
2023-04-23T13:46:27.262Z,26.14
2023-04-23T13:48:54.299Z,25.31
2023-04-23T13:51:35.332Z,26.25
2023-04-23T13:54:03.109Z,26.64
2023-04-23T13:56:31.384Z,28.33
2023-04-23T13:59:18.384Z,26.79
2023-04-23T14:01:49.703Z,28.32
2023-04-23T14:04:17.870Z,27.92
2023-04-23T14:06:45.521Z,29.04
2023-04-23T14:09:12.522Z,27.99
2023-04-23T14:11:40.615Z,28.61
2023-04-23T14:14:07.968Z,29.37
2023-04-23T14:16:35.648Z,29.65
2023-04-23T14:19:02.647Z,30.47
2023-04-23T14:21:29.976Z,29.69
2023-04-23T14:24:03.120Z,30.37
2023-04-23T14:26:48.083Z,30.19
2023-04-23T14:29:34.947Z,30.02
2023-04-23T14:32:02.354Z,30.42
2023-04-23T14:34:29.515Z,30.67
2023-04-23T14:36:56.774Z,30.06
2023-04-23T14:39:25.881Z,30.45
2023-04-23T14:41:53.372Z,31.44
2023-04-23T14:44:21.106Z,30.19
2023-04-23T14:46:51.070Z,31.26
2023-04-23T14:49:19.109Z,31.94
2023-04-23T14:51:47.333Z,32.58
2023-04-23T14:54:14.211Z,32.49
2023-04-23T14:56:42.152Z,33.00
2023-04-23T14:59:09.278Z,32.54
2023-04-23T15:01:36.505Z,32.43
2023-04-23T15:04:03.822Z,33.23
2023-04-23T15:06:31.445Z,32.77
2023-04-23T15:08:58.390Z,33.35
2023-04-23T15:11:25.728Z,33.15
2023-04-23T15:14:14.100Z,33.21
2023-04-23T15:16:48.678Z,32.58
2023-04-23T15:19:20.623Z,33.68
2023-04-23T15:21:48.383Z,33.69
2023-04-23T15:24:16.320Z,33.70
2023-04-23T15:26:45.903Z,33.92
2023-04-23T15:29:13.806Z,34.24
2023-04-23T15:31:41.922Z,32.92
2023-04-23T15:34:09.624Z,32.88
2023-04-23T15:36:38.067Z,33.62
2023-04-23T15:39:07.023Z,32.85
2023-04-23T15:41:39.440Z,33.26
2023-04-23T15:44:10.980Z,32.69
2023-04-23T15:46:38.249Z,32.90
2023-04-23T15:49:05.727Z,34.34
2023-04-23T15:51:33.109Z,34.65
2023-04-23T15:54:02.281Z,33.10
2023-04-23T15:56:29.539Z,33.43
2023-04-23T15:58:56.991Z,34.44
2023-04-23T16:01:26.389Z,33.84
2023-04-23T16:04:09.266Z,33.06
2023-04-23T16:06:37.220Z,33.63
2023-04-23T16:09:07.265Z,34.04
2023-04-23T16:11:38.517Z,34.14
2023-04-23T16:14:06.187Z,34.20
2023-04-23T16:16:33.614Z,34.40
2023-04-23T16:19:02.033Z,34.12
2023-04-23T16:21:29.207Z,34.93
2023-04-23T16:23:56.092Z,34.58
2023-04-23T16:26:24.219Z,35.60
2023-04-23T16:29:05.515Z,35.17
2023-04-23T16:31:39.273Z,35.42
2023-04-23T16:34:06.330Z,35.70
2023-04-23T16:36:33.828Z,35.77
2023-04-23T16:39:00.696Z,36.41
2023-04-23T16:41:27.956Z,36.67
2023-04-23T16:43:55.118Z,36.15
2023-04-23T16:46:22.501Z,36.36
2023-04-23T16:48:49.439Z,36.80
2023-04-23T16:51:17.042Z,37.06
2023-04-23T16:53:44.192Z,36.36
2023-04-23T16:56:11.381Z,36.75
2023-04-23T16:58:38.387Z,37.05
2023-04-23T17:01:05.726Z,36.79
2023-04-23T17:03:33.977Z,36.85
2023-04-23T17:10:01.259Z,37.28
2023-04-23T17:12:28.439Z,37.99
2023-04-23T17:14:55.347Z,38.24
2023-04-23T17:17:23.157Z,37.52
2023-04-23T17:19:50.003Z,37.92
2023-04-23T17:22:17.399Z,37.55
2023-04-23T17:24:44.502Z,37.63
2023-04-23T17:27:11.964Z,37.39
2023-04-23T17:29:38.802Z,37.81
2023-04-23T17:32:06.296Z,37.96
2023-04-23T17:34:34.511Z,38.06
2023-04-23T17:37:01.694Z,38.24
2023-04-23T17:39:28.660Z,38.88
2023-04-23T17:41:57.584Z,39.79
2023-04-23T17:44:24.534Z,41.48
2023-04-23T17:46:53.465Z,42.80
2023-04-23T17:49:20.372Z,42.35
2023-04-23T17:51:47.605Z,44.16
2023-04-23T17:54:14.654Z,46.41
2023-04-23T17:56:41.980Z,47.85
2023-04-23T17:59:08.838Z,50.50
2023-04-23T18:01:35.989Z,50.88
2023-04-23T18:04:04.175Z,51.10
2023-04-23T18:06:31.888Z,52.94
2023-04-23T18:08:58.842Z,53.72
2023-04-23T18:11:26.069Z,53.00
2023-04-23T18:16:21.221Z,54.01
2023-04-23T18:18:49.468Z,57.73
2023-04-23T18:21:18.216Z,61.17
2023-04-23T18:23:45.615Z,61.66
2023-04-23T18:26:12.833Z,62.61
2023-04-23T18:28:39.765Z,62.44
2023-04-23T18:31:07.084Z,62.95
2023-04-23T18:33:43.554Z,63.34
2023-04-23T18:36:24.171Z,62.75
2023-04-23T18:38:51.731Z,64.41
2023-04-23T18:41:18.970Z,66.30
2023-04-23T18:43:45.906Z,67.31
2023-04-23T18:46:13.431Z,69.13
2023-04-23T18:48:46.519Z,70.04
2023-04-23T18:51:42.960Z,71.04
2023-04-23T18:54:09.909Z,71.17
2023-04-23T18:56:37.107Z,72.44
2023-04-23T18:59:04.016Z,72.89
2023-04-23T19:01:31.323Z,73.43
2023-04-23T19:03:58.802Z,73.55
2023-04-23T19:06:26.759Z,74.32
2023-04-23T19:08:53.931Z,75.07
2023-04-23T19:11:21.569Z,75.27
2023-04-23T19:13:48.446Z,76.09
2023-04-23T19:16:18.234Z,76.43
2023-04-23T19:18:45.310Z,76.46
2023-04-23T19:21:12.606Z,76.10
2023-04-23T19:23:39.661Z,76.45
2023-04-23T19:26:06.807Z,77.10
2023-04-23T19:28:33.690Z,77.74
2023-04-23T19:31:00.979Z,78.00
2023-04-23T19:33:27.863Z,77.82
2023-04-23T19:35:55.097Z,78.06
2023-04-23T19:38:22.101Z,77.38
2023-04-23T19:40:49.464Z,78.03
2023-04-23T19:43:16.325Z,77.66
2023-04-23T19:45:43.548Z,77.69
2023-04-23T19:48:10.523Z,78.53
2023-04-23T19:50:37.766Z,79.50
2023-04-23T19:53:08.386Z,80.71
2023-04-23T19:55:35.975Z,81.32
2023-04-23T19:58:06.514Z,81.98
2023-04-23T20:00:38.900Z,82.57
2023-04-23T20:03:09.665Z,82.75
2023-04-23T20:05:37.491Z,82.92
2023-04-23T20:08:11.264Z,84.37
2023-04-23T20:10:38.529Z,84.69
2023-04-23T20:13:05.574Z,85.07
2023-04-23T20:15:33.328Z,85.04
2023-04-23T20:18:00.858Z,86.12
2023-04-23T20:20:28.061Z,86.52
2023-04-23T20:22:55.077Z,86.49
2023-04-23T20:25:25.575Z,86.35
2023-04-23T20:27:53.087Z,86.56
2023-04-23T20:30:20.671Z,86.92
2023-04-23T20:32:47.664Z,87.65
2023-04-23T20:35:15.070Z,88.38
2023-04-23T20:37:42.839Z,88.68
2023-04-23T20:40:14.502Z,89.25
2023-04-23T20:42:42.459Z,89.60
2023-04-23T20:45:11.685Z,90.30
2023-04-23T20:47:38.623Z,90.61
2023-04-23T20:50:06.329Z,90.79
2023-04-23T20:52:33.516Z,91.08
2023-04-23T20:55:00.665Z,91.30
2023-04-23T20:57:27.565Z,91.20
2023-04-23T20:59:54.880Z,91.10
2023-04-23T21:02:22.251Z,91.13
2023-04-23T21:04:49.549Z,91.28
2023-04-23T21:07:16.408Z,91.31
2023-04-23T21:09:43.844Z,91.62
2023-04-23T21:12:11.083Z,92.15
2023-04-23T21:14:38.385Z,92.43
2023-04-23T21:17:05.743Z,92.97
2023-04-23T21:19:32.893Z,93.44
2023-04-23T21:21:59.744Z,94.32
2023-04-23T21:24:26.821Z,95.20
2023-04-23T21:26:53.717Z,95.88
2023-04-23T21:29:20.941Z,96.33
2023-04-23T21:31:51.149Z,96.49
2023-04-23T21:34:19.613Z,97.18
2023-04-23T21:36:46.668Z,97.24
2023-04-23T21:39:13.856Z,97.36
2023-04-23T21:41:40.805Z,97.06
2023-04-23T21:44:08.749Z,96.64
2023-04-23T21:46:35.730Z,96.09
2023-04-23T21:49:02.970Z,95.13
2023-04-23T21:51:31.151Z,94.21
2023-04-23T21:53:58.294Z,94.04
2023-04-23T21:56:25.202Z,94.22
2023-04-23T21:58:52.391Z,94.40
2023-04-23T22:01:19.380Z,94.78
2023-04-23T22:03:47.344Z,95.16
2023-04-23T22:06:18.465Z,95.39
2023-04-23T22:08:46.367Z,96.10
2023-04-23T22:11:14.777Z,96.10
2023-04-23T22:13:42.015Z,96.59
2023-04-23T22:16:24.344Z,97.11
2023-04-23T22:18:52.130Z,97.70
2023-04-23T22:21:19.000Z,98.29
2023-04-23T22:23:46.299Z,99.10
2023-04-23T22:26:13.274Z,99.22
2023-04-23T22:28:40.521Z,99.54
2023-04-23T22:31:07.386Z,99.65
2023-04-23T22:33:35.111Z,99.25
2023-04-23T22:36:02.816Z,98.87
2023-04-23T22:38:29.969Z,98.25
2023-04-23T22:40:56.916Z,97.86
2023-04-23T22:43:24.016Z,97.73
2023-04-23T22:45:50.929Z,97.30
2023-04-23T22:48:18.273Z,97.56
2023-04-23T22:50:45.122Z,97.49
2023-04-23T22:53:12.621Z,98.14
2023-04-23T22:55:39.880Z,98.60
2023-04-23T22:58:07.003Z,99.01
2023-04-23T23:00:33.870Z,99.32
2023-04-23T23:03:01.302Z,99.80
2023-04-23T23:05:28.352Z,100.00
2023-04-23T23:07:56.441Z,100.00
2023-04-23T23:10:23.354Z,100.00
2023-04-23T23:12:50.544Z,100.00
2023-04-23T23:15:17.486Z,100.00
2023-04-23T23:17:44.689Z,100.00
2023-04-23T23:20:12.126Z,100.00
2023-04-23T23:22:39.423Z,100.00
2023-04-23T23:25:07.492Z,100.00
2023-04-23T23:27:34.663Z,100.00
2023-04-23T23:30:05.669Z,100.00
2023-04-23T23:32:33.711Z,100.00
2023-04-23T23:35:00.662Z,100.00
2023-04-23T23:37:28.107Z,100.00
2023-04-23T23:39:55.471Z,100.00
2023-04-23T23:42:22.657Z,100.00
2023-04-23T23:44:49.551Z,100.00
2023-04-23T23:47:16.738Z,100.00
2023-04-23T23:49:43.776Z,100.00
2023-04-23T23:52:11.193Z,100.00
2023-04-23T23:54:38.069Z,100.00
2023-04-23T23:57:05.286Z,100.00
2023-04-23T23:59:32.220Z,100.00
